Station info - map view · info · telemetry · weather · raw · status · beacons · messages · bulletins · browse · moving · my account
Callsign, ship name or locator: Clear       
It is possible to search using wildcards (*?) after a prefix. Example: OH*
APRS station IU2FIM-9 - show graphs
Map loading...
Comment: 145.487MHz Andrea
Mic-E message: En route
Location: 45°22.19' N 9°40.77' E - locator JN45UI18MS - show map - static map
5.1 miles Southeast bearing 139° from Pieranica, Provincia di Cremona, Lombardy, Italy [?]
5.3 miles Southeast bearing 129° from Torlino Vimercati, Provincia di Cremona, Lombardy, Italy
24.6 miles East bearing 105° from Milan, Province of Milan, Lombardy, Italy
75.9 miles Northeast bearing 28° from Genova, Province of Genoa, Liguria, Italy
Last position: 2020-02-06 12:57:08 EST (10d 22h35m ago)
2020-02-06 18:57:08 CET local time at Pieranica, Italy [?]
Altitude: 217 ft
Course: 130°
Speed: 0 MPH
Device: Yaesu: FTM-400DR (rig)
Last path: IU2FIM-9>TU2RQ9 via WIDE1-1,WIDE2-1,qAR,IK2CHZ-12 (good)
Positions stored: 1894
Other SSIDs: IU2FIM IU2FIM-1 IU2FIM-12 IU2FIM-2
Stations near current position of IU2FIM-9 - show more
callsign distance last heard - EST      callsign distance last heard - EST
IU2FIM-2524.0 yards 128°2020-02-16 07:58:31 IU2FIM-10.3 miles 135°2020-02-15 08:45:34
IU2FIM0.3 miles 135°2020-02-15 08:45:47 IU2FIM-120.3 miles 129°2020-02-16 11:01:28
IK2CHZ-30.5 miles 146°2020-02-17 11:31:27 IK2CHZ-110.5 miles 146°2020-02-17 11:18:36
IK2CHZ-120.5 miles 146°2020-02-17 11:24:00 IK2CNZ-30.5 miles 146°2020-02-12 23:31:21
IK2CHZ-90.5 miles 144°2020-02-16 16:47:42 IW2LJB B0.6 miles 143°2020-02-16 19:07:22
IW2LJB-B0.6 miles 143°2020-02-16 19:07:32 IW2LJB-N0.6 miles 143°2020-02-16 15:22:27
IW2LJB-DP0.6 miles 143°2020-02-16 19:09:06 IW2LJB-H10.6 miles 143°2020-02-16 16:00:16
IW2IBG-70.8 miles 152°2020-02-06 09:04:54 IK2PYX-81.1 miles 174°2020-02-07 09:18:26
IW2GUI-H02.5 miles 311°2020-02-12 12:30:18 IZ2JQV-H03.2 miles 303°2020-02-17 11:05:19
IZ2DDY-86.2 miles 152°2020-02-13 13:29:28 IW2OFO-96.9 miles 113°2020-02-17 11:26:16
Stations which heard IU2FIM-9 directly on radio –
callsign pkts first heard - EST last heard longest (tx => rx) longest at - EST
IK2XDE-6 19 2020-02-06 05:41:54 2020-02-06 12:36:34 JN45TJ > JN45MQ 33.4 miles 312° 2020-02-06 12:36:34
IR2UBX-11 12 2020-02-06 05:41:57 2020-02-06 12:26:19 JN45SK > JN45MQ 29.3 miles 306° 2020-02-06 12:26:19
IR1AX-11 1 2020-02-06 12:16:19 2020-02-06 12:16:19 JN45RL > JN44KL 74.5 miles 203° 2020-02-06 12:16:19
IR2BZ 60 2020-02-06 05:45:20 2020-02-06 12:57:08 JN45PL > JN45XO 33.2 miles 77° 2020-02-06 05:45:20
IQ2ER 7 2020-02-06 06:03:18 2020-02-06 12:40:04 JN45TI > JN45OT 36.1 miles 328° 2020-02-06 12:40:04
IR2BW 3 2020-02-06 06:03:53 2020-02-06 12:41:14 JN45QM > JN55DN 42.0 miles 83° 2020-02-06 06:03:53
IR2DF 2 2020-02-06 05:51:30 2020-02-06 12:25:40 JN45QL > JN55AS 36.1 miles 58° 2020-02-06 05:51:30
IK2ILW 10 2020-02-06 12:03:15 2020-02-06 12:38:19 JN45TI > JN45VV 37.3 miles 13° 2020-02-06 12:38:19
IK2CHZ-12 40 2020-02-06 05:50:20 2020-02-06 12:57:08 JN45QM > JN45UI 17.5 miles 129° 2020-02-06 06:49:02
IW5CBL-15 5 2020-02-06 12:24:19 2020-02-06 12:43:04 JN45SL > JN44WL 70.9 miles 166° 2020-02-06 12:24:19
IR2UFW 3 2020-02-06 05:47:40 2020-02-06 05:59:36 JN45QL > JN45LI 21.8 miles 247° 2020-02-06 05:59:36
IR2UGL-11 1 2020-02-06 12:43:48 2020-02-06 12:43:48 JN45UI > JN46OA 50.4 miles 336° 2020-02-06 12:43:48
IR2UEZ 1 2020-02-06 12:09:09 2020-02-06 12:09:09 JN45RL > JN45JP 32.2 miles 288° 2020-02-06 12:09:09
IQ3VO 4 2020-02-06 12:39:29 2020-02-06 12:44:23 JN45TI > JN55MQ 72.4 miles 71° 2020-02-06 12:39:29
IU2GED 1 2020-02-06 12:25:40 2020-02-06 12:25:40 JN45SK > JN45XV 36.9 miles 32° 2020-02-06 12:25:40
IR2UGD 4 2020-02-06 05:42:25 2020-02-06 05:45:55 JN45PL > JN45PJ 5.8 miles 190° 2020-02-06 05:45:55
IR2AL 57 2020-02-06 05:43:00 2020-02-06 12:57:08 JN45UI > JN45OL 24.5 miles 289° 2020-02-06 12:57:08
IZ2DDY 71 2020-02-06 05:42:01 2020-02-06 12:57:12 JN45QM > JN45SH 15.8 miles 160° 2020-02-06 06:52:18
IR2BP 31 2020-02-06 05:44:45 2020-02-06 12:44:58 JN45PL > JN55DN 48.5 miles 84° 2020-02-06 05:44:45

Only position packets which were originated by the station are shown here. The range statistics show some extra long hops, because some digipeaters do not correctly add themselves to the digipeater path. Please check the raw packets.
About this site
This page shows real-time information collected from the Automatic Position Reporting System Internet network (APRS-IS). APRS is used by amateur (ham) radio operators to transmit real-time position information, weather data, telemetry and messages over the radio. A vehicle equipped with a GPS receiver, a VHF transmitter or HF transceiver and a small computer device called a tracker transmits it's location, speed and course in a small data packet, which is then received by a nearby iGate receiving site which forwards the packet on the Internet. Systems connected to the Internet can send information on the APRS-IS without a radio transmitter, or collect and display information transmitted anywhere in the world.
User guide · FAQ · Blog · Discussion group · Linking to aprs.fi · AIS sites · Service status · Database statistics · Advertising on aprs.fi · Technical details · API · Change log · Planned changes · Credits and thanks · Terms Of Service · iPhone/iPad APRS